createdAt,value
2023-03-07T00:01:28.807Z,17.70
2023-03-07T00:06:22.588Z,18.20
2023-03-07T00:08:53.972Z,21.70
2023-03-07T00:11:20.495Z,20.80
2023-03-07T00:13:50.218Z,20.60
2023-03-07T00:16:19.804Z,21.50
2023-03-07T00:18:46.677Z,19.60
2023-03-07T00:21:15.866Z,19.50
2023-03-07T00:23:44.279Z,17.80
2023-03-07T00:26:17.581Z,17.00
2023-03-07T00:28:47.662Z,17.20
2023-03-07T00:31:15.158Z,18.50
2023-03-07T00:33:42.431Z,19.00
2023-03-07T00:36:21.042Z,18.00
2023-03-07T00:38:48.666Z,16.00
2023-03-07T00:41:18.789Z,18.20
2023-03-07T00:43:46.661Z,17.40
2023-03-07T00:46:14.490Z,17.40
2023-03-07T00:48:41.514Z,19.10
2023-03-07T00:51:11.243Z,17.10
2023-03-07T00:53:39.112Z,17.00
2023-03-07T00:56:15.114Z,16.40
2023-03-07T00:58:42.072Z,16.50
2023-03-07T01:01:10.904Z,17.40
2023-03-07T01:03:37.375Z,17.30
2023-03-07T01:06:07.806Z,17.40
2023-03-07T01:08:35.588Z,16.10
2023-03-07T01:11:04.084Z,16.80
2023-03-07T01:13:32.088Z,17.50
2023-03-07T01:16:08.021Z,17.90
2023-03-07T01:18:34.517Z,17.40
2023-03-07T01:21:01.623Z,17.40
2023-03-07T01:23:28.657Z,16.90
2023-03-07T01:25:55.093Z,17.30
2023-03-07T01:28:21.558Z,15.50
2023-03-07T01:30:56.758Z,15.00
2023-03-07T01:33:23.582Z,16.90
2023-03-07T01:35:50.703Z,15.80
2023-03-07T01:38:17.250Z,14.90
2023-03-07T01:40:43.640Z,15.10
2023-03-07T01:43:33.188Z,15.20
2023-03-07T01:46:18.348Z,15.00
2023-03-07T01:48:50.247Z,15.50
2023-03-07T01:51:18.170Z,17.10
2023-03-07T01:53:46.265Z,18.70
2023-03-07T01:56:13.007Z,18.10
2023-03-07T01:58:40.396Z,16.30
2023-03-07T02:01:12.055Z,16.70
2023-03-07T02:03:47.564Z,17.80
2023-03-07T02:06:14.415Z,17.00
2023-03-07T02:08:43.487Z,16.10
2023-03-07T02:11:11.845Z,16.60
2023-03-07T02:13:39.099Z,18.90
2023-03-07T02:16:07.320Z,16.50
2023-03-07T02:18:42.009Z,15.60
2023-03-07T02:21:15.100Z,17.80
2023-03-07T02:23:48.275Z,14.90
2023-03-07T02:26:43.629Z,15.50
2023-03-07T02:29:11.391Z,13.90
2023-03-07T02:31:38.479Z,14.20
2023-03-07T02:34:21.148Z,14.10
2023-03-07T02:36:52.059Z,15.20
2023-03-07T02:39:20.921Z,13.80
2023-03-07T02:41:49.443Z,14.30
2023-03-07T02:44:16.283Z,14.40
2023-03-07T02:46:42.697Z,14.70
2023-03-07T02:49:09.153Z,13.70
2023-03-07T02:51:35.534Z,14.20
2023-03-07T02:54:01.933Z,13.40
2023-03-07T02:56:29.048Z,15.00
2023-03-07T02:58:56.725Z,14.00
2023-03-07T03:01:23.234Z,15.80
2023-03-07T03:03:49.819Z,14.90
2023-03-07T03:06:16.335Z,13.70
2023-03-07T03:08:42.751Z,13.40
2023-03-07T03:11:09.716Z,13.90
2023-03-07T03:13:38.681Z,11.70
2023-03-07T03:16:05.715Z,13.20
2023-03-07T03:18:32.428Z,13.00
2023-03-07T03:20:58.903Z,11.90
2023-03-07T03:23:28.449Z,13.00
2023-03-07T03:26:06.980Z,15.00
2023-03-07T03:28:35.475Z,14.80
2023-03-07T03:31:08.493Z,14.10
2023-03-07T03:33:35.933Z,13.70
2023-03-07T03:36:09.583Z,15.80
2023-03-07T03:41:08.308Z,12.00
2023-03-07T03:43:36.727Z,14.80
2023-03-07T03:46:03.564Z,13.30
2023-03-07T03:48:31.076Z,13.30
2023-03-07T03:51:05.206Z,14.60
2023-03-07T03:53:33.816Z,15.10
2023-03-07T03:56:04.497Z,14.70
2023-03-07T03:58:33.132Z,13.90
2023-03-07T04:01:05.255Z,13.90
2023-03-07T04:03:36.446Z,14.60
2023-03-07T04:06:08.850Z,14.30
2023-03-07T04:08:37.669Z,14.00
2023-03-07T04:11:05.297Z,14.30
2023-03-07T04:13:33.541Z,15.30
2023-03-07T04:16:00.439Z,14.90
2023-03-07T04:18:27.090Z,15.60
2023-03-07T04:20:54.060Z,14.80
2023-03-07T04:23:22.329Z,14.80
2023-03-07T04:25:57.272Z,15.80
2023-03-07T04:28:26.933Z,14.20
2023-03-07T04:30:54.256Z,14.80
2023-03-07T04:33:20.733Z,16.20
2023-03-07T04:35:49.700Z,16.10
2023-03-07T04:38:16.669Z,17.20
2023-03-07T04:40:43.548Z,16.50
2023-03-07T04:43:11.415Z,14.90
2023-03-07T04:45:37.936Z,15.20
2023-03-07T04:48:04.621Z,16.00
2023-03-07T04:50:31.382Z,16.20
2023-03-07T04:52:58.201Z,17.30
2023-03-07T04:55:25.426Z,16.30
2023-03-07T04:57:52.053Z,16.60
2023-03-07T05:00:19.479Z,16.20
2023-03-07T05:02:47.985Z,15.30
2023-03-07T05:05:15.020Z,13.90
2023-03-07T05:07:42.287Z,14.80
2023-03-07T05:10:09.615Z,15.10
2023-03-07T05:12:36.168Z,16.10
2023-03-07T05:15:02.808Z,19.10
2023-03-07T05:17:31.172Z,15.20
2023-03-07T05:19:57.594Z,17.90
2023-03-07T05:22:24.027Z,17.10
2023-03-07T05:24:50.549Z,18.20
2023-03-07T05:27:16.937Z,18.60
2023-03-07T05:29:43.441Z,17.80
2023-03-07T05:32:10.674Z,17.30
2023-03-07T05:34:37.668Z,16.60
2023-03-07T05:37:04.571Z,16.10
2023-03-07T05:39:31.314Z,14.80
2023-03-07T05:41:57.746Z,15.50
2023-03-07T05:44:24.803Z,16.10
2023-03-07T05:46:51.431Z,16.70
2023-03-07T05:49:18.168Z,18.00
2023-03-07T05:51:44.784Z,20.00
2023-03-07T05:54:11.652Z,17.50
2023-03-07T05:56:38.654Z,19.10
2023-03-07T05:59:08.973Z,17.50
2023-03-07T06:01:35.836Z,15.80
2023-03-07T06:04:02.726Z,15.10
2023-03-07T06:06:30.460Z,18.40
2023-03-07T06:08:59.111Z,16.30
2023-03-07T06:11:26.515Z,18.60
2023-03-07T06:13:54.085Z,17.30
2023-03-07T06:16:23.633Z,15.80
2023-03-07T06:18:50.355Z,17.30
2023-03-07T06:21:17.916Z,16.90
2023-03-07T06:23:45.895Z,16.40
2023-03-07T06:26:13.044Z,17.30
2023-03-07T06:28:40.505Z,17.90
2023-03-07T06:31:18.519Z,19.60
2023-03-07T06:33:46.961Z,19.10
2023-03-07T06:36:16.053Z,17.60
2023-03-07T06:38:55.306Z,18.30
2023-03-07T06:41:21.748Z,15.30
2023-03-07T06:43:52.217Z,17.00
2023-03-07T06:46:21.026Z,16.40
2023-03-07T06:48:50.278Z,17.00
2023-03-07T06:51:17.200Z,17.90
2023-03-07T06:53:43.643Z,15.40
2023-03-07T06:56:10.041Z,16.90
2023-03-07T06:58:36.522Z,16.20
2023-03-07T07:01:03.454Z,16.20
2023-03-07T07:03:30.494Z,17.50
2023-03-07T07:05:57.019Z,17.10
2023-03-07T07:08:23.519Z,16.20
2023-03-07T07:10:49.900Z,17.70
2023-03-07T07:13:16.499Z,15.20
2023-03-07T07:15:43.417Z,15.80
2023-03-07T07:18:13.331Z,18.20
2023-03-07T07:20:39.981Z,17.80
2023-03-07T07:23:06.492Z,17.90
2023-03-07T07:25:33.004Z,16.20
2023-03-07T07:27:59.500Z,16.10
2023-03-07T07:30:29.120Z,17.80
2023-03-07T07:32:56.154Z,17.90
2023-03-07T07:35:22.990Z,18.50
2023-03-07T07:37:49.432Z,18.50
2023-03-07T07:40:15.818Z,18.60
2023-03-07T07:42:43.017Z,18.00
2023-03-07T07:45:54.375Z,16.90
2023-03-07T07:49:05.166Z,16.10
2023-03-07T07:51:33.288Z,16.50
2023-03-07T07:54:00.301Z,15.20
2023-03-07T07:56:27.385Z,16.00
2023-03-07T07:58:53.875Z,17.40
2023-03-07T08:01:22.849Z,15.90
2023-03-07T08:03:50.010Z,16.60
2023-03-07T08:06:21.926Z,18.00
2023-03-07T08:08:49.498Z,15.00
2023-03-07T08:11:17.566Z,15.90
2023-03-07T08:13:53.440Z,19.10
2023-03-07T08:16:26.059Z,16.50
2023-03-07T08:18:55.731Z,16.40
2023-03-07T08:21:24.485Z,18.20
2023-03-07T08:23:52.343Z,17.50
2023-03-07T08:26:19.136Z,18.60
2023-03-07T08:28:47.360Z,19.80
2023-03-07T08:31:19.794Z,20.60
2023-03-07T08:33:47.613Z,18.10
2023-03-07T08:36:14.152Z,19.60
2023-03-07T08:38:40.674Z,17.10
2023-03-07T08:41:08.161Z,16.60
2023-03-07T08:43:36.594Z,16.90
2023-03-07T08:46:04.410Z,17.80
2023-03-07T08:48:31.638Z,17.60
2023-03-07T08:51:04.137Z,16.90
2023-03-07T08:53:30.956Z,16.30
2023-03-07T08:55:57.438Z,15.50
2023-03-07T08:58:24.622Z,16.80
2023-03-07T09:00:51.975Z,17.50
2023-03-07T09:03:18.424Z,18.50
2023-03-07T09:05:44.997Z,15.90
2023-03-07T09:08:17.133Z,15.50
2023-03-07T09:10:43.524Z,16.30
2023-03-07T09:13:10.812Z,17.60
2023-03-07T09:15:41.632Z,17.70
2023-03-07T09:18:08.372Z,16.10
2023-03-07T09:20:37.005Z,15.90
2023-03-07T09:23:04.324Z,15.60
2023-03-07T09:25:30.905Z,14.70
2023-03-07T09:27:58.414Z,16.90
2023-03-07T09:30:27.943Z,15.40
2023-03-07T09:32:55.341Z,16.90
2023-03-07T09:35:22.408Z,15.60
2023-03-07T09:37:49.223Z,17.40
2023-03-07T09:40:20.341Z,15.20
2023-03-07T09:42:57.745Z,16.00
2023-03-07T09:45:55.254Z,15.90
2023-03-07T09:48:52.232Z,17.40
2023-03-07T09:51:44.228Z,14.80
2023-03-07T09:54:20.321Z,13.40
2023-03-07T09:56:49.761Z,14.30
2023-03-07T09:59:24.238Z,13.60
2023-03-07T10:02:14.217Z,13.10
2023-03-07T10:04:55.869Z,14.40
2023-03-07T10:07:25.485Z,15.30
2023-03-07T10:09:59.038Z,14.30
2023-03-07T10:12:49.108Z,15.10
2023-03-07T10:15:20.081Z,13.70
2023-03-07T10:17:47.113Z,13.10
2023-03-07T10:20:37.388Z,13.30
2023-03-07T10:23:22.812Z,13.30
2023-03-07T10:25:54.159Z,11.70
2023-03-07T10:28:21.382Z,14.00
2023-03-07T10:30:51.346Z,15.60
2023-03-07T10:33:19.505Z,17.80
2023-03-07T10:37:00.038Z,14.10
2023-03-07T10:39:40.988Z,15.60
2023-03-07T10:42:11.584Z,12.90
2023-03-07T10:44:38.988Z,13.10
2023-03-07T10:47:05.673Z,14.00
2023-03-07T10:49:37.407Z,13.40
2023-03-07T10:52:31.158Z,11.60
2023-03-07T10:55:32.415Z,13.40
2023-03-07T10:58:22.652Z,12.20
2023-03-07T11:01:07.618Z,12.20
2023-03-07T11:03:54.148Z,14.20
2023-03-07T11:06:40.198Z,12.50
2023-03-07T11:09:16.308Z,12.50
2023-03-07T11:11:52.244Z,12.80
2023-03-07T11:14:21.305Z,13.20
2023-03-07T11:17:01.161Z,15.60
2023-03-07T11:19:27.585Z,14.70
2023-03-07T11:21:55.753Z,14.70
2023-03-07T11:24:37.147Z,13.00
2023-03-07T11:27:04.364Z,13.80
2023-03-07T11:29:34.256Z,12.70
2023-03-07T11:32:13.944Z,13.30
2023-03-07T11:34:49.369Z,14.00
2023-03-07T11:37:26.750Z,10.80
2023-03-07T11:39:59.328Z,10.10
2023-03-07T11:42:41.470Z,11.80
2023-03-07T11:45:51.276Z,11.00
2023-03-07T11:48:51.237Z,11.70
2023-03-07T11:51:36.019Z,13.00
2023-03-07T11:54:12.019Z,13.00
2023-03-07T11:56:46.542Z,11.10
2023-03-07T11:59:48.756Z,10.70
2023-03-07T12:02:32.883Z,11.10
2023-03-07T12:05:02.309Z,11.30
2023-03-07T12:08:07.971Z,13.80
2023-03-07T12:10:46.086Z,11.30
2023-03-07T12:13:15.977Z,11.30
2023-03-07T12:16:05.966Z,11.10
2023-03-07T12:18:56.167Z,10.70
2023-03-07T12:21:49.635Z,11.40
2023-03-07T12:24:26.089Z,10.20
2023-03-07T12:27:02.065Z,12.00
2023-03-07T12:29:47.087Z,11.60
2023-03-07T12:32:21.218Z,12.30
2023-03-07T12:34:57.902Z,11.90
2023-03-07T12:37:29.942Z,10.90
2023-03-07T12:40:04.065Z,13.30
2023-03-07T12:42:36.694Z,12.10
2023-03-07T12:45:12.890Z,12.90
2023-03-07T12:47:57.364Z,15.20
2023-03-07T12:50:35.469Z,12.70
2023-03-07T12:53:10.893Z,12.20
2023-03-07T12:55:45.485Z,12.90
2023-03-07T12:58:38.086Z,13.10
2023-03-07T13:01:27.097Z,15.20
2023-03-07T13:04:03.088Z,13.90
2023-03-07T13:06:31.384Z,13.00
2023-03-07T13:09:00.951Z,13.80
2023-03-07T13:11:31.255Z,14.90
2023-03-07T13:13:58.991Z,11.80
2023-03-07T13:16:37.827Z,11.40
2023-03-07T13:19:36.560Z,12.60
2023-03-07T13:22:23.708Z,12.70
2023-03-07T13:24:54.582Z,13.80
2023-03-07T13:27:43.960Z,13.70
2023-03-07T13:30:19.903Z,12.30
2023-03-07T13:32:58.656Z,13.80
2023-03-07T13:35:30.858Z,13.50
2023-03-07T13:38:03.249Z,13.00
2023-03-07T13:40:37.350Z,13.40
2023-03-07T13:43:31.113Z,13.20
2023-03-07T13:46:01.703Z,11.70
2023-03-07T13:48:28.214Z,11.40
2023-03-07T13:50:54.794Z,12.60
2023-03-07T13:53:24.970Z,12.30
2023-03-07T13:56:15.144Z,13.10
2023-03-07T13:59:09.438Z,14.20
2023-03-07T14:01:38.861Z,15.60
2023-03-07T14:04:40.300Z,14.50
2023-03-07T14:07:32.000Z,15.30
2023-03-07T14:10:21.405Z,15.70
2023-03-07T14:13:14.827Z,16.00
2023-03-07T14:16:04.722Z,16.10
2023-03-07T14:18:44.032Z,16.30
2023-03-07T14:21:15.532Z,15.50
2023-03-07T14:23:58.086Z,14.90
2023-03-07T14:26:43.333Z,13.50
2023-03-07T14:29:18.273Z,15.70
2023-03-07T14:31:45.822Z,16.90
2023-03-07T14:34:21.513Z,16.40
2023-03-07T14:36:52.153Z,19.10
2023-03-07T14:39:21.216Z,16.90
2023-03-07T14:41:59.226Z,17.40
2023-03-07T14:44:31.417Z,17.70
2023-03-07T14:47:00.969Z,21.40
2023-03-07T14:49:35.101Z,19.70
2023-03-07T14:52:03.320Z,21.10
2023-03-07T14:54:32.870Z,19.00
2023-03-07T14:57:01.232Z,17.10
2023-03-07T14:59:29.232Z,17.00
2023-03-07T15:01:57.956Z,17.50
2023-03-07T15:04:28.568Z,18.40
2023-03-07T15:07:00.999Z,18.80
2023-03-07T15:09:28.490Z,19.10
2023-03-07T15:12:02.607Z,19.20
2023-03-07T15:14:43.995Z,18.20
2023-03-07T15:17:16.571Z,18.50
2023-03-07T15:19:58.331Z,17.80
2023-03-07T15:22:28.591Z,16.50
2023-03-07T15:24:56.285Z,19.00
2023-03-07T15:27:30.028Z,20.30
2023-03-07T15:29:58.325Z,22.50
2023-03-07T15:32:39.462Z,21.60
2023-03-07T15:35:10.272Z,18.50
2023-03-07T15:38:18.652Z,19.80
2023-03-07T15:40:46.028Z,22.10
2023-03-07T15:43:20.344Z,20.20
2023-03-07T15:46:02.229Z,21.70
2023-03-07T15:48:43.332Z,18.10
2023-03-07T15:51:16.404Z,20.10
2023-03-07T15:53:45.691Z,20.90
2023-03-07T15:56:21.150Z,21.80
2023-03-07T15:58:48.800Z,22.60
2023-03-07T16:01:22.988Z,21.80
2023-03-07T16:03:53.047Z,24.90
2023-03-07T16:06:37.604Z,24.00
2023-03-07T16:09:06.403Z,21.70
2023-03-07T16:11:33.612Z,24.40
2023-03-07T16:14:00.309Z,26.00
2023-03-07T16:16:28.883Z,24.90
2023-03-07T16:18:58.961Z,23.30
2023-03-07T16:21:26.040Z,23.50
2023-03-07T16:23:53.116Z,26.10
2023-03-07T16:26:22.653Z,22.30
2023-03-07T16:28:50.060Z,24.10
2023-03-07T16:31:17.841Z,26.40
2023-03-07T16:33:45.841Z,27.60
2023-03-07T16:36:13.777Z,27.60
2023-03-07T16:38:41.507Z,27.50
2023-03-07T16:41:16.665Z,28.00
2023-03-07T16:43:44.751Z,28.50
2023-03-07T16:46:15.793Z,30.00
2023-03-07T16:48:44.238Z,30.00
2023-03-07T16:51:17.313Z,29.00
2023-03-07T16:53:44.969Z,29.00
2023-03-07T16:56:32.981Z,27.20
2023-03-07T16:59:00.854Z,25.70
2023-03-07T17:01:28.978Z,26.40
2023-03-07T17:03:58.491Z,25.70
2023-03-07T17:06:37.233Z,23.70
2023-03-07T17:09:06.677Z,27.20
2023-03-07T17:11:34.859Z,24.60
2023-03-07T17:14:08.028Z,26.70
2023-03-07T17:16:39.422Z,24.40
2023-03-07T17:19:07.447Z,27.30
2023-03-07T17:21:33.880Z,26.90
2023-03-07T17:24:00.861Z,23.60
2023-03-07T17:26:34.452Z,26.00
2023-03-07T17:29:04.851Z,28.40
2023-03-07T17:31:31.319Z,26.90
2023-03-07T17:33:57.752Z,27.30
2023-03-07T17:36:24.758Z,27.50
2023-03-07T17:38:51.737Z,27.40
2023-03-07T17:41:18.220Z,25.30
2023-03-07T17:43:44.816Z,22.90
2023-03-07T17:46:14.308Z,25.60
2023-03-07T17:48:40.842Z,24.10
2023-03-07T17:51:09.332Z,24.70
2023-03-07T17:53:37.168Z,26.10
2023-03-07T17:56:08.840Z,21.80
2023-03-07T17:58:35.342Z,23.20
2023-03-07T18:01:01.706Z,26.00
2023-03-07T18:03:28.138Z,22.80
2023-03-07T18:05:55.322Z,25.50
2023-03-07T18:08:21.762Z,27.00
2023-03-07T18:10:48.267Z,25.20
2023-03-07T18:13:14.737Z,23.90
2023-03-07T18:15:45.257Z,25.40
2023-03-07T18:18:11.647Z,25.00
2023-03-07T18:20:39.087Z,27.10
2023-03-07T18:23:05.590Z,22.90
2023-03-07T18:25:32.128Z,25.20
2023-03-07T18:28:01.768Z,19.70
2023-03-07T18:30:28.700Z,21.80
2023-03-07T18:32:55.086Z,20.90
2023-03-07T18:35:22.926Z,22.60
2023-03-07T18:37:49.392Z,23.50
2023-03-07T18:40:18.864Z,21.50
2023-03-07T18:42:45.426Z,20.20
2023-03-07T18:45:12.145Z,19.00
2023-03-07T18:47:38.522Z,20.00
2023-03-07T18:50:05.990Z,20.60
2023-03-07T18:52:32.426Z,22.20
2023-03-07T18:54:58.913Z,21.70
2023-03-07T18:57:25.506Z,26.50
2023-03-07T18:59:52.024Z,22.90
2023-03-07T19:02:19.033Z,23.70
2023-03-07T19:04:45.735Z,23.20
2023-03-07T19:07:12.135Z,24.50
2023-03-07T19:09:38.736Z,22.00
2023-03-07T19:12:05.431Z,23.10
2023-03-07T19:14:32.692Z,20.60
2023-03-07T19:16:59.388Z,20.90
2023-03-07T19:19:26.029Z,21.10
2023-03-07T19:21:52.518Z,21.60
2023-03-07T19:24:18.928Z,21.70
2023-03-07T19:26:45.903Z,19.70
2023-03-07T19:29:13.427Z,19.00
2023-03-07T19:31:43.146Z,18.50
2023-03-07T19:34:09.993Z,16.90
2023-03-07T19:36:36.886Z,18.10
2023-03-07T19:39:04.355Z,18.90
2023-03-07T19:41:32.569Z,19.20
2023-03-07T19:44:00.255Z,18.60
2023-03-07T19:46:27.459Z,18.90
2023-03-07T19:48:53.953Z,17.40
2023-03-07T19:51:22.984Z,17.00
2023-03-07T19:53:50.281Z,17.70
2023-03-07T19:56:19.914Z,15.30
2023-03-07T19:58:47.163Z,17.70
2023-03-07T20:01:16.587Z,15.50
2023-03-07T20:03:43.290Z,17.50
2023-03-07T20:06:14.668Z,16.20
2023-03-07T20:08:41.239Z,15.60
2023-03-07T20:11:15.518Z,17.80
2023-03-07T20:13:45.040Z,18.10
2023-03-07T20:16:12.880Z,16.20
2023-03-07T20:18:39.843Z,16.30
2023-03-07T20:21:09.047Z,15.70
2023-03-07T20:23:35.752Z,16.00
2023-03-07T20:26:04.116Z,15.50
2023-03-07T20:28:31.476Z,16.40
2023-03-07T20:30:58.446Z,16.10
2023-03-07T20:33:24.995Z,17.00
2023-03-07T20:36:04.471Z,16.70
2023-03-07T20:38:33.002Z,16.40
2023-03-07T20:41:12.928Z,16.60
2023-03-07T20:43:40.351Z,14.50
2023-03-07T20:46:13.038Z,16.00
2023-03-07T20:48:40.760Z,17.80
2023-03-07T20:51:15.305Z,16.50
2023-03-07T20:53:42.595Z,15.30
2023-03-07T20:56:09.010Z,15.90
2023-03-07T20:58:35.525Z,15.10
2023-03-07T21:01:02.024Z,15.90
2023-03-07T21:03:28.705Z,20.30
2023-03-07T21:05:57.250Z,16.80
2023-03-07T21:08:25.295Z,19.70
2023-03-07T21:11:02.444Z,15.70
2023-03-07T21:13:29.832Z,15.70
2023-03-07T21:15:59.109Z,16.70
2023-03-07T21:18:26.925Z,15.90
2023-03-07T21:20:53.344Z,16.00
2023-03-07T21:23:19.754Z,16.80
2023-03-07T21:25:46.735Z,17.90
2023-03-07T21:28:13.220Z,17.40
2023-03-07T21:31:03.814Z,16.20
2023-03-07T21:33:31.585Z,15.80
2023-03-07T21:35:58.745Z,17.80
2023-03-07T21:38:25.459Z,16.80
2023-03-07T21:40:55.168Z,15.90
2023-03-07T21:43:22.237Z,15.40
2023-03-07T21:45:49.323Z,16.30
2023-03-07T21:48:18.837Z,16.50
2023-03-07T21:50:49.169Z,16.40
2023-03-07T21:53:15.774Z,15.90
2023-03-07T21:55:57.276Z,15.10
2023-03-07T21:58:24.518Z,15.90
2023-03-07T22:00:51.265Z,15.30
2023-03-07T22:03:18.438Z,12.40
2023-03-07T22:05:45.806Z,15.70
2023-03-07T22:08:12.903Z,15.20
2023-03-07T22:10:39.851Z,16.00
2023-03-07T22:13:07.000Z,15.20
2023-03-07T22:15:33.726Z,15.80
2023-03-07T22:18:00.306Z,15.80
2023-03-07T22:20:26.774Z,13.70
2023-03-07T22:22:53.247Z,15.50
2023-03-07T22:25:20.596Z,14.80
2023-03-07T22:27:47.061Z,15.90
2023-03-07T22:30:14.006Z,15.40
2023-03-07T22:32:44.221Z,15.20
2023-03-07T22:35:10.806Z,14.80
2023-03-07T22:37:37.873Z,16.20
2023-03-07T22:40:06.017Z,16.20
2023-03-07T22:42:33.026Z,13.50
2023-03-07T22:44:59.460Z,14.20
2023-03-07T22:47:26.108Z,15.20
2023-03-07T22:49:52.984Z,16.10
2023-03-07T22:52:19.867Z,15.70
2023-03-07T22:54:46.329Z,16.60
2023-03-07T22:57:12.862Z,14.60
2023-03-07T22:59:39.268Z,15.30
2023-03-07T23:02:05.730Z,16.40
2023-03-07T23:04:32.811Z,18.30
2023-03-07T23:06:59.315Z,16.20
2023-03-07T23:09:25.799Z,17.20
2023-03-07T23:11:52.202Z,15.60
2023-03-07T23:14:18.646Z,13.90
2023-03-07T23:16:45.183Z,14.90
2023-03-07T23:19:11.658Z,16.80
2023-03-07T23:21:40.339Z,14.30
2023-03-07T23:24:07.282Z,15.90
2023-03-07T23:26:36.595Z,15.60
2023-03-07T23:29:05.545Z,17.20
2023-03-07T23:31:40.593Z,14.90
2023-03-07T23:34:16.982Z,16.00
2023-03-07T23:36:44.185Z,16.70
2023-03-07T23:39:11.076Z,15.50
2023-03-07T23:41:37.552Z,15.10
2023-03-07T23:44:04.605Z,17.40
2023-03-07T23:46:31.569Z,15.90
2023-03-07T23:48:58.173Z,14.50
2023-03-07T23:51:25.034Z,15.90
2023-03-07T23:53:51.485Z,16.00
2023-03-07T23:56:17.990Z,17.50
2023-03-07T23:58:48.677Z,17.00
